createdAt,value
2018-11-05T00:01:41.560Z,97.28
2018-11-05T00:04:11.616Z,97.15
2018-11-05T00:06:41.595Z,97.31
2018-11-05T00:09:12.690Z,97.18
2018-11-05T00:11:42.612Z,97.41
2018-11-05T00:14:12.493Z,97.12
2018-11-05T00:16:42.485Z,96.61
2018-11-05T00:19:12.343Z,96.58
2018-11-05T00:21:42.475Z,96.62
2018-11-05T00:24:12.519Z,96.92
2018-11-05T00:26:42.297Z,97.08
2018-11-05T00:29:12.106Z,97.75
2018-11-05T00:31:42.020Z,98.07
2018-11-05T00:34:11.840Z,98.48
2018-11-05T00:36:41.799Z,99.33
2018-11-05T00:39:12.935Z,99.64
2018-11-05T00:41:42.757Z,100.00
2018-11-05T00:44:12.646Z,100.00
2018-11-05T00:46:42.453Z,100.00
2018-11-05T00:49:12.487Z,99.88
2018-11-05T00:51:42.778Z,100.00
2018-11-05T00:54:12.847Z,100.00
2018-11-05T00:56:42.704Z,99.87
2018-11-05T00:59:12.763Z,100.00
2018-11-05T01:01:42.625Z,100.00
2018-11-05T01:04:12.531Z,100.00
2018-11-05T01:06:42.432Z,100.00
2018-11-05T01:09:12.503Z,100.00
2018-11-05T01:11:42.373Z,100.00
2018-11-05T01:14:12.334Z,100.00
2018-11-05T01:16:43.193Z,100.00
2018-11-05T01:19:13.249Z,100.00
2018-11-05T01:21:43.131Z,100.00
2018-11-05T01:24:13.063Z,100.00
2018-11-05T01:26:42.868Z,100.00
2018-11-05T01:29:12.676Z,100.00
2018-11-05T01:31:42.645Z,100.00
2018-11-05T01:34:12.573Z,100.00
2018-11-05T01:36:42.679Z,100.00
2018-11-05T01:39:12.653Z,99.49
2018-11-05T01:41:42.617Z,99.06
2018-11-05T01:44:12.742Z,98.97
2018-11-05T01:46:42.627Z,98.81
2018-11-05T01:49:12.668Z,99.11
2018-11-05T01:51:42.640Z,99.55
2018-11-05T01:54:12.554Z,98.47
2018-11-05T01:56:42.284Z,98.38
2018-11-05T01:59:11.992Z,98.31
2018-11-05T02:01:41.803Z,98.25
2018-11-05T02:04:11.638Z,98.59
2018-11-05T02:06:41.470Z,98.07
2018-11-05T02:09:11.320Z,97.80
2018-11-05T02:11:41.106Z,97.38
2018-11-05T02:14:10.959Z,97.19
2018-11-05T02:16:45.753Z,97.23
2018-11-05T02:19:15.510Z,97.05
2018-11-05T02:21:45.335Z,97.94
2018-11-05T02:24:15.146Z,98.11
2018-11-05T02:26:45.003Z,99.60
2018-11-05T02:29:14.878Z,100.00
2018-11-05T02:31:44.652Z,100.00
2018-11-05T02:34:14.925Z,100.00
2018-11-05T02:36:44.689Z,100.00
2018-11-05T02:39:14.572Z,100.00
2018-11-05T02:41:44.406Z,100.00
2018-11-05T02:44:14.219Z,100.00
2018-11-05T02:46:44.062Z,100.00
2018-11-05T02:49:13.938Z,100.00
2018-11-05T02:51:43.646Z,100.00
2018-11-05T02:54:13.730Z,100.00
2018-11-05T02:56:43.813Z,100.00
2018-11-05T02:59:13.656Z,100.00
2018-11-05T03:01:43.366Z,100.00
2018-11-05T03:04:13.181Z,100.00
2018-11-05T03:06:43.042Z,100.00
2018-11-05T03:09:13.649Z,100.00
2018-11-05T03:11:43.384Z,100.00
2018-11-05T03:14:13.224Z,100.00
2018-11-05T03:16:43.129Z,100.00
2018-11-05T03:19:12.931Z,100.00
2018-11-05T03:21:42.846Z,100.00
2018-11-05T03:24:12.654Z,100.00
2018-11-05T03:26:42.586Z,100.00
2018-11-05T03:29:12.288Z,100.00
2018-11-05T03:31:42.066Z,100.00
2018-11-05T03:34:12.270Z,100.00
2018-11-05T03:36:42.166Z,100.00
2018-11-05T03:39:12.935Z,100.00
2018-11-05T03:41:42.831Z,100.00
2018-11-05T03:44:12.608Z,100.00
2018-11-05T03:46:42.521Z,100.00
2018-11-05T03:49:12.624Z,100.00
2018-11-05T03:51:42.417Z,100.00
2018-11-05T03:54:12.310Z,100.00
2018-11-05T03:56:42.135Z,100.00
2018-11-05T03:59:11.951Z,100.00
2018-11-05T04:01:41.766Z,100.00
2018-11-05T04:04:11.673Z,100.00
2018-11-05T04:06:41.692Z,100.00
2018-11-05T04:09:12.245Z,100.00
2018-11-05T04:11:42.268Z,100.00
2018-11-05T04:14:12.050Z,100.00
2018-11-05T04:16:41.986Z,100.00
2018-11-05T04:19:11.814Z,100.00
2018-11-05T04:21:43.338Z,100.00
2018-11-05T04:24:14.239Z,100.00
2018-11-05T04:26:45.263Z,100.00
2018-11-05T04:29:15.161Z,100.00
2018-11-05T04:31:44.931Z,100.00
2018-11-05T04:34:14.726Z,100.00
2018-11-05T04:36:45.207Z,100.00
2018-11-05T04:39:16.088Z,100.00
2018-11-05T04:41:46.076Z,100.00
2018-11-05T04:44:15.808Z,100.00
2018-11-05T04:46:45.684Z,100.00
2018-11-05T04:49:15.445Z,100.00
2018-11-05T04:51:45.479Z,100.00
2018-11-05T04:54:15.416Z,100.00
2018-11-05T04:56:45.303Z,100.00
2018-11-05T04:59:15.117Z,100.00
2018-11-05T05:01:45.014Z,100.00
2018-11-05T05:04:14.765Z,100.00
2018-11-05T05:06:44.597Z,100.00
2018-11-05T05:09:14.517Z,100.00
2018-11-05T05:11:44.296Z,100.00
2018-11-05T05:14:14.193Z,100.00
2018-11-05T05:16:44.045Z,100.00
2018-11-05T05:19:13.907Z,100.00
2018-11-05T05:21:43.682Z,100.00
2018-11-05T05:24:13.606Z,100.00
2018-11-05T05:26:43.167Z,100.00
2018-11-05T05:29:12.649Z,100.00
2018-11-05T05:31:42.355Z,100.00
2018-11-05T05:34:12.245Z,100.00
2018-11-05T05:36:42.117Z,100.00
2018-11-05T05:39:11.665Z,100.00
2018-11-05T05:41:42.415Z,100.00
2018-11-05T05:44:12.253Z,100.00
2018-11-05T05:46:42.053Z,100.00
2018-11-05T05:49:11.967Z,100.00
2018-11-05T05:51:41.996Z,100.00
2018-11-05T05:54:11.909Z,100.00
2018-11-05T05:56:41.766Z,100.00
2018-11-05T05:59:11.532Z,100.00
2018-11-05T06:01:41.381Z,100.00
2018-11-05T06:04:12.457Z,100.00
2018-11-05T06:06:42.422Z,100.00
2018-11-05T06:09:12.877Z,100.00
2018-11-05T06:11:42.720Z,100.00
2018-11-05T06:14:12.736Z,100.00
2018-11-05T06:16:42.656Z,100.00
2018-11-05T06:19:12.545Z,100.00
2018-11-05T06:21:42.322Z,100.00
2018-11-05T06:24:12.069Z,100.00
2018-11-05T06:26:41.804Z,100.00
2018-11-05T06:29:11.665Z,100.00
2018-11-05T06:31:41.409Z,100.00
2018-11-05T06:34:11.269Z,100.00
2018-11-05T06:36:41.057Z,100.00
2018-11-05T06:39:13.189Z,100.00
2018-11-05T06:41:43.606Z,100.00
2018-11-05T06:44:13.671Z,100.00
2018-11-05T06:46:43.687Z,100.00
2018-11-05T06:49:13.401Z,100.00
2018-11-05T06:51:44.261Z,100.00
2018-11-05T06:54:14.111Z,100.00
2018-11-05T06:56:43.898Z,100.00
2018-11-05T06:59:13.769Z,100.00
2018-11-05T07:01:43.606Z,100.00
2018-11-05T07:04:13.484Z,100.00
2018-11-05T07:06:43.285Z,100.00
2018-11-05T07:09:13.109Z,100.00
2018-11-05T07:11:42.924Z,100.00
2018-11-05T07:14:13.032Z,100.00
2018-11-05T07:16:42.906Z,100.00
2018-11-05T07:19:13.082Z,100.00
2018-11-05T07:21:42.604Z,100.00
2018-11-05T07:24:12.529Z,100.00
2018-11-05T07:26:42.377Z,100.00
2018-11-05T07:29:12.236Z,100.00
2018-11-05T07:31:42.120Z,100.00
2018-11-05T07:34:11.938Z,100.00
2018-11-05T07:36:41.760Z,100.00
2018-11-05T07:39:12.672Z,100.00
2018-11-05T07:41:42.459Z,100.00
2018-11-05T07:44:12.178Z,100.00
2018-11-05T07:46:42.084Z,100.00
2018-11-05T07:49:11.892Z,100.00
2018-11-05T07:51:42.828Z,100.00
2018-11-05T07:54:12.620Z,100.00
2018-11-05T07:56:42.444Z,99.64
2018-11-05T07:59:12.145Z,98.76
2018-11-05T08:01:41.959Z,98.61
2018-11-05T08:04:12.481Z,98.23
2018-11-05T08:06:42.256Z,97.80
2018-11-05T08:09:13.900Z,97.41
2018-11-05T08:11:43.710Z,97.07
2018-11-05T08:14:13.526Z,97.33
2018-11-05T08:16:43.255Z,97.49
2018-11-05T08:19:13.089Z,96.47
2018-11-05T08:21:42.877Z,95.93
2018-11-05T08:24:13.680Z,97.09
2018-11-05T08:26:43.446Z,97.32
2018-11-05T08:29:13.255Z,97.99
2018-11-05T08:31:42.976Z,97.45
2018-11-05T08:34:12.771Z,97.57
2018-11-05T08:36:42.521Z,98.37
2018-11-05T08:39:13.310Z,98.11
2018-11-05T08:41:43.095Z,98.15
2018-11-05T08:44:12.887Z,98.89
2018-11-05T08:46:42.706Z,98.84
2018-11-05T08:49:12.499Z,99.26
2018-11-05T08:51:42.649Z,98.66
2018-11-05T08:54:12.299Z,98.52
2018-11-05T08:56:42.107Z,98.11
2018-11-05T08:59:11.884Z,97.80
2018-11-05T09:01:41.824Z,96.37
2018-11-05T09:04:11.687Z,95.29
2018-11-05T09:06:41.499Z,94.13
2018-11-05T09:09:11.443Z,93.65
2018-11-05T09:11:41.288Z,92.38
2018-11-05T09:14:11.008Z,92.82
2018-11-05T09:16:40.955Z,91.50
2018-11-05T09:19:10.832Z,89.15
2018-11-05T09:21:40.661Z,88.20
2018-11-05T09:24:10.657Z,86.04
2018-11-05T09:26:40.448Z,86.02
2018-11-05T09:29:10.255Z,84.71
2018-11-05T09:31:40.085Z,83.45
2018-11-05T09:34:09.901Z,83.06
2018-11-05T09:36:39.745Z,82.01
2018-11-05T09:39:10.151Z,82.30
2018-11-05T09:41:39.932Z,82.75
2018-11-05T09:44:09.788Z,82.27
2018-11-05T09:46:39.622Z,81.45
2018-11-05T09:49:09.492Z,81.90
2018-11-05T09:51:39.323Z,81.71
2018-11-05T09:54:09.247Z,82.05
2018-11-05T09:56:39.020Z,82.35
2018-11-05T09:59:09.124Z,82.48
2018-11-05T10:01:38.867Z,82.81
2018-11-05T10:04:08.849Z,82.55
2018-11-05T10:06:38.591Z,82.63
2018-11-05T10:09:11.657Z,82.55
2018-11-05T10:11:41.511Z,81.85
2018-11-05T10:14:11.359Z,80.30
2018-11-05T10:16:41.188Z,80.18
2018-11-05T10:19:11.021Z,79.07
2018-11-05T10:21:40.838Z,78.07
2018-11-05T10:24:10.638Z,78.01
2018-11-05T10:26:40.476Z,77.63
2018-11-05T10:29:10.230Z,75.42
2018-11-05T10:31:40.114Z,75.39
2018-11-05T10:34:09.976Z,73.57
2018-11-05T10:36:39.740Z,72.79
2018-11-05T10:39:10.670Z,73.35
2018-11-05T10:41:40.487Z,72.52
2018-11-05T10:44:10.294Z,72.48
2018-11-05T10:46:40.210Z,71.91
2018-11-05T10:49:10.079Z,72.00
2018-11-05T10:51:39.864Z,71.22
2018-11-05T10:54:09.697Z,70.61
2018-11-05T10:56:39.592Z,70.54
2018-11-05T10:59:09.474Z,71.09
2018-11-05T11:01:44.488Z,71.89
2018-11-05T11:04:19.501Z,71.95
2018-11-05T11:06:49.269Z,72.51
2018-11-05T11:09:19.084Z,72.83
2018-11-05T11:11:48.843Z,73.26
2018-11-05T11:14:18.749Z,73.42
2018-11-05T11:16:48.708Z,73.08
2018-11-05T11:19:18.500Z,72.64
2018-11-05T11:21:48.432Z,73.26
2018-11-05T11:24:18.570Z,72.86
2018-11-05T11:26:48.597Z,72.69
2018-11-05T11:29:18.530Z,73.33
2018-11-05T11:31:48.266Z,73.37
2018-11-05T11:34:18.098Z,74.67
2018-11-05T11:36:48.067Z,74.99
2018-11-05T11:39:17.836Z,74.68
2018-11-05T11:41:47.612Z,74.69
2018-11-05T11:44:17.482Z,74.50
2018-11-05T11:46:47.370Z,75.05
2018-11-05T11:49:18.182Z,74.46
2018-11-05T11:51:48.134Z,74.59
2018-11-05T11:54:17.986Z,75.39
2018-11-05T11:56:48.958Z,75.30
2018-11-05T11:59:18.791Z,75.89
2018-11-05T12:01:53.793Z,76.44
2018-11-05T12:04:23.554Z,76.61
2018-11-05T12:06:53.382Z,75.73
2018-11-05T12:09:23.145Z,75.79
2018-11-05T12:11:53.000Z,76.38
2018-11-05T12:14:22.817Z,76.37
2018-11-05T12:16:52.565Z,76.33
2018-11-05T12:19:22.360Z,77.16
2018-11-05T12:21:52.957Z,77.61
2018-11-05T12:24:22.850Z,77.71
2018-11-05T12:26:52.657Z,78.87
2018-11-05T12:29:22.865Z,79.08
2018-11-05T12:31:53.480Z,78.67
2018-11-05T12:34:23.322Z,79.15
2018-11-05T12:36:53.216Z,78.70
2018-11-05T12:39:23.154Z,79.00
2018-11-05T12:41:53.353Z,78.66
2018-11-05T12:44:23.186Z,78.95
2018-11-05T12:46:52.993Z,78.46
2018-11-05T12:49:22.761Z,78.68
2018-11-05T12:51:53.020Z,79.13
2018-11-05T12:54:22.785Z,79.12
2018-11-05T12:56:52.816Z,78.54
2018-11-05T12:59:22.628Z,78.35
2018-11-05T13:01:56.390Z,77.76
2018-11-05T13:04:26.429Z,77.35
2018-11-05T13:06:56.691Z,77.41
2018-11-05T13:09:26.474Z,77.18
2018-11-05T13:11:56.268Z,76.66
2018-11-05T13:14:26.069Z,75.86
2018-11-05T13:16:55.889Z,75.28
2018-11-05T13:19:25.691Z,75.03
2018-11-05T13:21:55.480Z,75.03
2018-11-05T13:24:25.311Z,74.70
2018-11-05T13:26:55.116Z,74.46
2018-11-05T13:29:24.878Z,74.16
2018-11-05T13:31:54.597Z,73.73
2018-11-05T13:34:24.443Z,73.36
2018-11-05T13:36:54.313Z,73.42
2018-11-05T13:39:24.031Z,72.69
2018-11-05T13:41:53.787Z,72.11
2018-11-05T13:44:23.632Z,71.88
2018-11-05T13:46:53.816Z,72.00
2018-11-05T13:49:23.565Z,72.09
2018-11-05T13:51:53.234Z,72.31
2018-11-05T13:54:22.963Z,71.78
2018-11-05T13:56:52.682Z,71.99
2018-11-05T13:59:22.565Z,71.76
2018-11-05T14:01:52.431Z,72.17
2018-11-05T14:04:22.153Z,72.09
2018-11-05T14:06:52.014Z,71.98
2018-11-05T14:09:21.826Z,72.65
2018-11-05T14:11:51.756Z,72.65
2018-11-05T14:14:21.665Z,73.16
2018-11-05T14:16:51.672Z,73.69
2018-11-05T14:19:21.389Z,74.28
2018-11-05T14:21:51.196Z,75.02
2018-11-05T14:24:20.944Z,75.49
2018-11-05T14:26:50.921Z,76.38
2018-11-05T14:29:21.224Z,76.50
2018-11-05T14:31:50.511Z,76.49
2018-11-05T14:34:20.362Z,77.09
2018-11-05T14:36:50.272Z,77.40
2018-11-05T14:39:19.942Z,77.58
2018-11-05T14:41:49.736Z,78.34
2018-11-05T14:44:20.209Z,78.42
2018-11-05T14:46:50.064Z,78.53
2018-11-05T14:49:20.776Z,78.69
2018-11-05T14:51:50.569Z,79.26
2018-11-05T14:54:21.009Z,79.96
2018-11-05T14:56:51.442Z,80.57
2018-11-05T14:59:21.378Z,80.11
2018-11-05T15:01:55.152Z,80.51
2018-11-05T15:04:24.961Z,80.67
2018-11-05T15:06:54.797Z,81.32
2018-11-05T15:09:24.573Z,81.50
2018-11-05T15:11:54.438Z,81.25
2018-11-05T15:14:24.279Z,82.53
2018-11-05T15:16:54.263Z,82.31
2018-11-05T15:19:24.599Z,83.07
2018-11-05T15:21:54.517Z,83.44
2018-11-05T15:24:24.305Z,83.30
2018-11-05T15:26:54.182Z,83.51
2018-11-05T15:29:23.919Z,83.42
2018-11-05T15:31:53.984Z,83.11
2018-11-05T15:34:23.843Z,84.09
2018-11-05T15:36:53.722Z,84.12
2018-11-05T15:39:23.532Z,85.05
2018-11-05T15:41:53.484Z,85.63
2018-11-05T15:44:23.481Z,86.33
2018-11-05T15:46:54.018Z,86.12
2018-11-05T15:49:24.025Z,86.99
2018-11-05T15:51:54.119Z,88.12
2018-11-05T15:54:23.957Z,87.93
2018-11-05T15:56:53.749Z,88.36
2018-11-05T15:59:24.084Z,88.15
2018-11-05T16:01:54.052Z,88.28
2018-11-05T16:04:24.019Z,88.32
2018-11-05T16:06:54.302Z,89.25
2018-11-05T16:09:24.341Z,90.34
2018-11-05T16:11:54.773Z,90.99
2018-11-05T16:14:25.032Z,90.83
2018-11-05T16:16:55.251Z,91.60
2018-11-05T16:19:25.106Z,91.95
2018-11-05T16:21:56.229Z,91.69
2018-11-05T16:24:27.395Z,92.62
2018-11-05T16:26:58.656Z,93.01
2018-11-05T16:29:29.052Z,93.02
2018-11-05T16:31:59.004Z,93.65
2018-11-05T16:34:29.220Z,93.98
2018-11-05T16:36:59.049Z,94.56
2018-11-05T16:39:29.010Z,94.54
2018-11-05T16:42:00.036Z,95.40
2018-11-05T16:44:30.534Z,96.20
2018-11-05T16:47:00.656Z,95.99
2018-11-05T16:49:30.820Z,96.55
2018-11-05T16:52:01.297Z,96.79
2018-11-05T16:54:31.451Z,96.97
2018-11-05T16:57:02.503Z,96.94
2018-11-05T16:59:33.058Z,97.09
2018-11-05T17:02:03.862Z,97.27
2018-11-05T17:04:33.272Z,97.30
2018-11-05T17:07:03.076Z,96.52
2018-11-05T17:09:33.321Z,96.39
2018-11-05T17:12:08.352Z,96.58
2018-11-05T17:14:38.012Z,96.58
2018-11-05T17:17:08.293Z,97.84
2018-11-05T17:19:38.316Z,98.38
2018-11-05T17:22:08.958Z,98.60
2018-11-05T17:24:38.997Z,98.57
2018-11-05T17:27:09.200Z,98.73
2018-11-05T17:29:39.140Z,99.13
2018-11-05T17:32:09.201Z,98.76
2018-11-05T17:34:40.066Z,98.48
2018-11-05T17:37:11.228Z,97.52
2018-11-05T17:39:41.183Z,97.35
2018-11-05T17:42:19.069Z,97.09
2018-11-05T17:44:49.193Z,95.40
2018-11-05T17:47:19.306Z,94.84
2018-11-05T17:49:49.211Z,95.09
2018-11-05T17:52:19.483Z,95.02
2018-11-05T17:54:49.286Z,93.71
2018-11-05T17:57:23.135Z,92.34
2018-11-05T17:59:53.107Z,91.60
2018-11-05T18:02:23.863Z,90.74
2018-11-05T18:04:55.629Z,89.20
2018-11-05T18:07:26.186Z,89.90
2018-11-05T18:09:56.081Z,87.54
2018-11-05T18:12:26.041Z,85.34
2018-11-05T18:14:55.997Z,85.84
2018-11-05T18:17:26.285Z,83.87
2018-11-05T18:19:56.075Z,83.33
2018-11-05T18:22:26.587Z,83.41
2018-11-05T18:24:56.427Z,83.38
2018-11-05T18:27:27.404Z,84.70
2018-11-05T18:29:57.346Z,85.90
2018-11-05T18:32:27.299Z,86.26
2018-11-05T18:34:57.293Z,87.23
2018-11-05T18:37:27.191Z,87.35
2018-11-05T18:39:57.175Z,88.00
2018-11-05T18:42:27.039Z,88.12
2018-11-05T18:44:57.878Z,88.62
2018-11-05T18:47:28.080Z,88.47
2018-11-05T18:49:58.482Z,88.55
2018-11-05T18:55:54.306Z,87.38
2018-11-05T18:58:25.551Z,86.19
2018-11-05T19:00:56.501Z,85.23
2018-11-05T19:03:26.854Z,84.24
2018-11-05T19:05:57.030Z,83.34
2018-11-05T19:08:27.555Z,84.00
2018-11-05T19:10:57.694Z,83.31
2018-11-05T19:13:27.857Z,81.66
2018-11-05T19:15:58.162Z,82.94
2018-11-05T19:18:28.543Z,82.27
2018-11-05T19:20:58.776Z,80.67
2018-11-05T19:23:29.242Z,78.83
2018-11-05T19:25:59.556Z,78.76
2018-11-05T19:28:29.991Z,77.71
2018-11-05T19:31:00.186Z,77.81
2018-11-05T19:33:30.511Z,79.37
2018-11-05T19:36:05.085Z,78.48
2018-11-05T19:38:34.871Z,78.44
2018-11-05T19:41:08.840Z,78.58
2018-11-05T19:43:39.194Z,76.51
2018-11-05T19:46:09.533Z,77.14
2018-11-05T19:48:49.990Z,77.91
2018-11-05T19:51:20.320Z,78.57
2018-11-05T19:53:51.094Z,77.67
2018-11-05T19:56:27.400Z,77.63
2018-11-05T19:58:59.627Z,77.85
2018-11-05T20:01:33.579Z,78.96
2018-11-05T20:04:03.881Z,79.56
2018-11-05T20:06:34.411Z,79.74
2018-11-05T20:09:05.494Z,80.09
2018-11-05T20:11:36.027Z,79.54
2018-11-05T20:14:07.772Z,79.96
2018-11-05T20:16:38.127Z,80.63
2018-11-05T20:19:08.615Z,80.88
2018-11-05T20:21:40.068Z,80.99
2018-11-05T20:24:10.256Z,80.57
2018-11-05T20:26:40.438Z,81.05
2018-11-05T20:29:10.278Z,81.40
2018-11-05T20:31:41.908Z,80.67
2018-11-05T20:34:12.710Z,80.85
2018-11-05T20:36:43.075Z,81.13
2018-11-05T20:39:13.423Z,80.86
2018-11-05T20:41:43.583Z,81.10
2018-11-05T20:44:14.236Z,80.78
2018-11-05T20:46:44.897Z,79.62
2018-11-05T20:49:21.384Z,77.57
2018-11-05T20:52:12.810Z,77.42
2018-11-05T20:54:49.184Z,78.65
2018-11-05T21:00:18.310Z,79.05
2018-11-05T21:03:14.090Z,78.95
2018-11-05T21:05:45.403Z,78.08
2018-11-05T21:08:17.234Z,78.26
2018-11-05T21:10:47.684Z,78.61
2018-11-05T21:13:19.040Z,78.16
2018-11-05T21:15:50.379Z,78.78
2018-11-05T21:18:24.258Z,78.57
2018-11-05T21:20:57.576Z,77.63
2018-11-05T21:26:34.407Z,78.05
2018-11-05T21:29:06.799Z,77.15
2018-11-05T21:56:33.985Z,71.26
2018-11-05T21:59:20.286Z,71.87
2018-11-05T22:01:53.127Z,72.91
2018-11-05T22:04:28.702Z,72.57
2018-11-05T22:06:59.844Z,73.01
2018-11-05T22:09:30.089Z,73.01
2018-11-05T22:12:01.591Z,73.31
2018-11-05T22:14:32.121Z,73.04
2018-11-05T22:17:24.337Z,73.40
2018-11-05T22:19:55.130Z,72.91
2018-11-05T22:22:28.777Z,72.11
2018-11-05T22:25:00.217Z,72.05
2018-11-05T22:27:31.063Z,71.17
2018-11-05T22:30:02.037Z,70.88
2018-11-05T22:32:33.225Z,71.07
2018-11-05T22:35:03.137Z,70.10
2018-11-05T22:37:32.964Z,70.37
2018-11-05T22:40:02.897Z,71.81
2018-11-05T22:42:32.937Z,72.21
2018-11-05T22:45:13.496Z,71.94
2018-11-05T22:47:44.390Z,72.12
2018-11-05T22:50:14.341Z,72.14
2018-11-05T22:52:44.441Z,71.66
2018-11-05T22:55:15.265Z,71.91
2018-11-05T22:57:45.168Z,72.48
2018-11-05T23:00:22.584Z,72.47
2018-11-05T23:02:58.590Z,72.56
2018-11-05T23:05:28.467Z,72.71
2018-11-05T23:07:58.955Z,72.46
2018-11-05T23:10:28.855Z,72.74
2018-11-05T23:12:58.803Z,72.83
2018-11-05T23:15:28.656Z,73.53
2018-11-05T23:17:58.502Z,73.73
2018-11-05T23:20:28.460Z,74.23
2018-11-05T23:22:58.318Z,74.33
2018-11-05T23:25:29.104Z,74.37
2018-11-05T23:27:59.076Z,74.40
2018-11-05T23:30:31.032Z,74.65
2018-11-05T23:33:01.792Z,75.21
2018-11-05T23:35:31.869Z,74.96
2018-11-05T23:38:01.850Z,75.84
2018-11-05T23:40:31.740Z,76.03
2018-11-05T23:43:01.577Z,76.55
2018-11-05T23:45:34.219Z,76.24
2018-11-05T23:48:05.286Z,76.39
2018-11-05T23:50:35.683Z,76.72
2018-11-05T23:53:05.875Z,76.85
2018-11-05T23:55:35.749Z,77.33
2018-11-05T23:58:06.160Z,77.77
